sensor_id;sensor_type;location;lat;lon;timestamp;temperature;humidity
15013;DHT22;7603;49.432;11.418;2022-07-29T00:00:36;20.70;75.90
15013;DHT22;7603;49.432;11.418;2022-07-29T00:03:02;20.70;76.00
15013;DHT22;7603;49.432;11.418;2022-07-29T00:05:28;20.70;75.40
15013;DHT22;7603;49.432;11.418;2022-07-29T00:07:54;20.70;75.60
15013;DHT22;7603;49.432;11.418;2022-07-29T00:10:20;20.60;75.90
15013;DHT22;7603;49.432;11.418;2022-07-29T00:12:46;20.60;75.80
15013;DHT22;7603;49.432;11.418;2022-07-29T00:15:11;20.60;75.20
15013;DHT22;7603;49.432;11.418;2022-07-29T00:17:38;20.60;75.10
15013;DHT22;7603;49.432;11.418;2022-07-29T00:20:04;20.50;75.70
15013;DHT22;7603;49.432;11.418;2022-07-29T00:22:30;20.60;76.10
15013;DHT22;7603;49.432;11.418;2022-07-29T00:24:57;20.60;76.10
15013;DHT22;7603;49.432;11.418;2022-07-29T00:27:22;20.60;75.60
15013;DHT22;7603;49.432;11.418;2022-07-29T00:29:48;20.60;75.40
15013;DHT22;7603;49.432;11.418;2022-07-29T00:32:14;20.60;74.90
15013;DHT22;7603;49.432;11.418;2022-07-29T00:34:39;20.60;74.80
15013;DHT22;7603;49.432;11.418;2022-07-29T00:37:24;20.70;75.40
15013;DHT22;7603;49.432;11.418;2022-07-29T00:39:50;20.70;74.60
15013;DHT22;7603;49.432;11.418;2022-07-29T00:42:16;20.70;74.20
15013;DHT22;7603;49.432;11.418;2022-07-29T00:44:43;20.60;74.10
15013;DHT22;7603;49.432;11.418;2022-07-29T00:47:10;20.60;73.80
15013;DHT22;7603;49.432;11.418;2022-07-29T00:49:37;20.60;73.80
15013;DHT22;7603;49.432;11.418;2022-07-29T00:52:05;20.70;73.60
15013;DHT22;7603;49.432;11.418;2022-07-29T00:54:32;20.70;73.60
15013;DHT22;7603;49.432;11.418;2022-07-29T00:57:01;20.80;73.50
15013;DHT22;7603;49.432;11.418;2022-07-29T00:59:27;20.80;73.00
15013;DHT22;7603;49.432;11.418;2022-07-29T01:01:54;20.80;72.80
15013;DHT22;7603;49.432;11.418;2022-07-29T01:04:21;20.80;72.70
15013;DHT22;7603;49.432;11.418;2022-07-29T01:06:47;20.80;72.80
15013;DHT22;7603;49.432;11.418;2022-07-29T01:09:15;20.80;73.60
15013;DHT22;7603;49.432;11.418;2022-07-29T01:11:42;20.70;74.30
15013;DHT22;7603;49.432;11.418;2022-07-29T01:14:09;20.60;76.90
15013;DHT22;7603;49.432;11.418;2022-07-29T01:16:45;20.50;81.50
15013;DHT22;7603;49.432;11.418;2022-07-29T01:21:57;20.30;84.20
15013;DHT22;7603;49.432;11.418;2022-07-29T01:24:29;20.20;84.70
15013;DHT22;7603;49.432;11.418;2022-07-29T01:27:10;20.10;85.50
15013;DHT22;7603;49.432;11.418;2022-07-29T01:29:45;20.00;89.20
15013;DHT22;7603;49.432;11.418;2022-07-29T01:32:19;19.90;92.10
15013;DHT22;7603;49.432;11.418;2022-07-29T01:39:50;19.40;93.80
15013;DHT22;7603;49.432;11.418;2022-07-29T01:45:20;19.20;93.80
15013;DHT22;7603;49.432;11.418;2022-07-29T01:47:55;19.10;94.20
15013;DHT22;7603;49.432;11.418;2022-07-29T01:50:35;19.00;94.00
15013;DHT22;7603;49.432;11.418;2022-07-29T01:53:08;18.90;94.50
15013;DHT22;7603;49.432;11.418;2022-07-29T01:55:46;18.90;95.00
15013;DHT22;7603;49.432;11.418;2022-07-29T01:58:13;18.90;96.10
15013;DHT22;7603;49.432;11.418;2022-07-29T02:00:40;18.80;96.80
15013;DHT22;7603;49.432;11.418;2022-07-29T02:03:11;18.70;99.40
15013;DHT22;7603;49.432;11.418;2022-07-29T02:05:40;18.60;99.90
15013;DHT22;7603;49.432;11.418;2022-07-29T02:08:08;18.40;99.90
15013;DHT22;7603;49.432;11.418;2022-07-29T02:10:36;18.30;99.90
15013;DHT22;7603;49.432;11.418;2022-07-29T02:13:03;18.20;99.90
15013;DHT22;7603;49.432;11.418;2022-07-29T02:15:32;18.10;99.90
15013;DHT22;7603;49.432;11.418;2022-07-29T02:18:02;18.00;99.90
15013;DHT22;7603;49.432;11.418;2022-07-29T02:20:30;17.90;99.90
15013;DHT22;7603;49.432;11.418;2022-07-29T02:22:58;17.80;99.90
15013;DHT22;7603;49.432;11.418;2022-07-29T02:25:26;17.80;99.90
15013;DHT22;7603;49.432;11.418;2022-07-29T02:27:53;17.70;99.90
15013;DHT22;7603;49.432;11.418;2022-07-29T02:30:20;17.60;99.90
15013;DHT22;7603;49.432;11.418;2022-07-29T02:32:48;17.60;99.90
15013;DHT22;7603;49.432;11.418;2022-07-29T02:35:15;17.60;99.90
15013;DHT22;7603;49.432;11.418;2022-07-29T02:37:43;17.50;99.90
15013;DHT22;7603;49.432;11.418;2022-07-29T02:40:14;17.50;99.90
15013;DHT22;7603;49.432;11.418;2022-07-29T02:42:42;17.50;99.90
15013;DHT22;7603;49.432;11.418;2022-07-29T02:45:09;17.40;99.90
15013;DHT22;7603;49.432;11.418;2022-07-29T02:47:47;17.30;99.90
15013;DHT22;7603;49.432;11.418;2022-07-29T02:50:27;17.30;99.90
15013;DHT22;7603;49.432;11.418;2022-07-29T02:56:01;17.20;99.90
15013;DHT22;7603;49.432;11.418;2022-07-29T02:58:31;17.20;99.90
15013;DHT22;7603;49.432;11.418;2022-07-29T03:01:10;17.20;99.90
15013;DHT22;7603;49.432;11.418;2022-07-29T03:03:38;17.10;99.90
15013;DHT22;7603;49.432;11.418;2022-07-29T03:06:05;17.10;99.90
15013;DHT22;7603;49.432;11.418;2022-07-29T03:08:34;17.10;99.90
15013;DHT22;7603;49.432;11.418;2022-07-29T03:11:00;17.10;99.90
15013;DHT22;7603;49.432;11.418;2022-07-29T03:13:27;17.10;99.90
15013;DHT22;7603;49.432;11.418;2022-07-29T03:15:55;17.10;99.90
15013;DHT22;7603;49.432;11.418;2022-07-29T03:18:22;17.10;99.90
15013;DHT22;7603;49.432;11.418;2022-07-29T03:20:47;17.00;99.90
15013;DHT22;7603;49.432;11.418;2022-07-29T03:23:21;17.00;99.90
15013;DHT22;7603;49.432;11.418;2022-07-29T03:25:53;17.00;99.90
15013;DHT22;7603;49.432;11.418;2022-07-29T03:28:19;16.90;99.90
15013;DHT22;7603;49.432;11.418;2022-07-29T03:30:45;16.90;99.90
15013;DHT22;7603;49.432;11.418;2022-07-29T03:33:11;16.90;99.90
15013;DHT22;7603;49.432;11.418;2022-07-29T03:35:36;16.90;99.90
15013;DHT22;7603;49.432;11.418;2022-07-29T03:38:02;16.90;99.90
15013;DHT22;7603;49.432;11.418;2022-07-29T03:43:09;16.90;99.90
15013;DHT22;7603;49.432;11.418;2022-07-29T03:45:37;16.90;99.90
15013;DHT22;7603;49.432;11.418;2022-07-29T03:48:08;16.90;99.90
15013;DHT22;7603;49.432;11.418;2022-07-29T03:50:35;16.90;99.90
15013;DHT22;7603;49.432;11.418;2022-07-29T03:53:01;16.80;99.90
15013;DHT22;7603;49.432;11.418;2022-07-29T03:55:29;16.80;99.90
15013;DHT22;7603;49.432;11.418;2022-07-29T03:57:57;16.80;99.90
15013;DHT22;7603;49.432;11.418;2022-07-29T04:00:25;16.90;99.90
15013;DHT22;7603;49.432;11.418;2022-07-29T04:02:52;16.90;99.90
15013;DHT22;7603;49.432;11.418;2022-07-29T04:05:18;16.90;99.90
15013;DHT22;7603;49.432;11.418;2022-07-29T04:07:47;17.00;99.90
15013;DHT22;7603;49.432;11.418;2022-07-29T04:10:14;17.00;99.90
15013;DHT22;7603;49.432;11.418;2022-07-29T04:12:41;17.10;99.90
15013;DHT22;7603;49.432;11.418;2022-07-29T04:15:07;17.10;99.90
15013;DHT22;7603;49.432;11.418;2022-07-29T04:17:33;17.10;99.90
15013;DHT22;7603;49.432;11.418;2022-07-29T04:19:59;17.10;99.90
15013;DHT22;7603;49.432;11.418;2022-07-29T04:22:25;17.10;99.90
15013;DHT22;7603;49.432;11.418;2022-07-29T04:24:51;17.10;99.90
15013;DHT22;7603;49.432;11.418;2022-07-29T04:27:16;17.20;99.90
15013;DHT22;7603;49.432;11.418;2022-07-29T04:29:42;17.30;99.90
15013;DHT22;7603;49.432;11.418;2022-07-29T04:32:07;17.30;99.90
15013;DHT22;7603;49.432;11.418;2022-07-29T04:34:33;17.40;99.90
15013;DHT22;7603;49.432;11.418;2022-07-29T04:36:59;17.40;99.90
15013;DHT22;7603;49.432;11.418;2022-07-29T04:39:25;17.50;99.90
15013;DHT22;7603;49.432;11.418;2022-07-29T04:41:51;17.50;99.90
15013;DHT22;7603;49.432;11.418;2022-07-29T04:44:17;17.50;99.90
15013;DHT22;7603;49.432;11.418;2022-07-29T04:46:42;17.60;99.90
15013;DHT22;7603;49.432;11.418;2022-07-29T04:49:08;17.70;99.90
15013;DHT22;7603;49.432;11.418;2022-07-29T04:51:34;17.70;99.90
15013;DHT22;7603;49.432;11.418;2022-07-29T04:54:00;17.80;99.90
15013;DHT22;7603;49.432;11.418;2022-07-29T04:56:26;17.90;99.90
15013;DHT22;7603;49.432;11.418;2022-07-29T04:58:52;18.00;99.90
15013;DHT22;7603;49.432;11.418;2022-07-29T05:01:19;18.10;99.90
15013;DHT22;7603;49.432;11.418;2022-07-29T05:03:45;18.10;99.90
15013;DHT22;7603;49.432;11.418;2022-07-29T05:06:11;18.20;99.90
15013;DHT22;7603;49.432;11.418;2022-07-29T05:08:37;18.20;99.90
15013;DHT22;7603;49.432;11.418;2022-07-29T05:11:03;18.20;99.90
15013;DHT22;7603;49.432;11.418;2022-07-29T05:13:29;18.30;99.90
15013;DHT22;7603;49.432;11.418;2022-07-29T05:15:55;18.30;99.90
15013;DHT22;7603;49.432;11.418;2022-07-29T05:18:24;18.30;99.90
15013;DHT22;7603;49.432;11.418;2022-07-29T05:20:49;18.40;99.90
15013;DHT22;7603;49.432;11.418;2022-07-29T05:23:15;18.50;99.90
15013;DHT22;7603;49.432;11.418;2022-07-29T05:25:41;18.50;99.90
15013;DHT22;7603;49.432;11.418;2022-07-29T05:28:06;18.50;99.90
15013;DHT22;7603;49.432;11.418;2022-07-29T05:30:32;18.50;99.90
15013;DHT22;7603;49.432;11.418;2022-07-29T05:32:58;18.50;99.90
15013;DHT22;7603;49.432;11.418;2022-07-29T05:35:23;18.50;99.90
15013;DHT22;7603;49.432;11.418;2022-07-29T05:37:49;18.50;99.90
15013;DHT22;7603;49.432;11.418;2022-07-29T05:40:14;18.50;99.90
15013;DHT22;7603;49.432;11.418;2022-07-29T05:42:40;18.50;99.90
15013;DHT22;7603;49.432;11.418;2022-07-29T05:45:06;18.40;99.90
15013;DHT22;7603;49.432;11.418;2022-07-29T05:47:32;18.40;99.90
15013;DHT22;7603;49.432;11.418;2022-07-29T05:49:57;18.50;99.90
15013;DHT22;7603;49.432;11.418;2022-07-29T05:52:23;18.50;99.90
15013;DHT22;7603;49.432;11.418;2022-07-29T05:54:49;18.60;99.90
15013;DHT22;7603;49.432;11.418;2022-07-29T05:57:19;18.60;99.90
15013;DHT22;7603;49.432;11.418;2022-07-29T05:59:46;18.80;99.90
15013;DHT22;7603;49.432;11.418;2022-07-29T06:02:12;18.90;99.90
15013;DHT22;7603;49.432;11.418;2022-07-29T06:04:37;19.00;99.90
15013;DHT22;7603;49.432;11.418;2022-07-29T06:07:03;19.30;99.90
15013;DHT22;7603;49.432;11.418;2022-07-29T06:09:29;19.50;99.90
15013;DHT22;7603;49.432;11.418;2022-07-29T06:11:54;19.70;99.90
15013;DHT22;7603;49.432;11.418;2022-07-29T06:14:20;19.90;99.90
15013;DHT22;7603;49.432;11.418;2022-07-29T06:16:46;20.10;99.90
15013;DHT22;7603;49.432;11.418;2022-07-29T06:19:11;20.20;99.90
15013;DHT22;7603;49.432;11.418;2022-07-29T06:21:44;20.30;99.90
15013;DHT22;7603;49.432;11.418;2022-07-29T06:24:14;20.50;99.90
15013;DHT22;7603;49.432;11.418;2022-07-29T06:26:40;20.70;99.90
15013;DHT22;7603;49.432;11.418;2022-07-29T06:29:06;20.90;99.50
15013;DHT22;7603;49.432;11.418;2022-07-29T06:31:32;21.10;99.00
15013;DHT22;7603;49.432;11.418;2022-07-29T06:33:58;21.20;98.40
15013;DHT22;7603;49.432;11.418;2022-07-29T06:36:24;21.40;97.80
15013;DHT22;7603;49.432;11.418;2022-07-29T06:38:50;21.50;97.20
15013;DHT22;7603;49.432;11.418;2022-07-29T06:41:15;21.70;96.50
15013;DHT22;7603;49.432;11.418;2022-07-29T06:43:43;21.90;95.90
15013;DHT22;7603;49.432;11.418;2022-07-29T06:46:12;22.00;95.50
15013;DHT22;7603;49.432;11.418;2022-07-29T06:48:39;22.20;95.10
15013;DHT22;7603;49.432;11.418;2022-07-29T06:51:06;22.30;94.10
15013;DHT22;7603;49.432;11.418;2022-07-29T06:53:33;22.40;93.20
15013;DHT22;7603;49.432;11.418;2022-07-29T06:56:00;22.50;92.80
15013;DHT22;7603;49.432;11.418;2022-07-29T06:58:27;22.70;92.60
15013;DHT22;7603;49.432;11.418;2022-07-29T07:00:53;22.80;92.10
15013;DHT22;7603;49.432;11.418;2022-07-29T07:03:19;23.00;91.50
15013;DHT22;7603;49.432;11.418;2022-07-29T07:05:45;23.30;91.00
15013;DHT22;7603;49.432;11.418;2022-07-29T07:08:12;23.50;90.00
15013;DHT22;7603;49.432;11.418;2022-07-29T07:10:38;23.80;88.80
15013;DHT22;7603;49.432;11.418;2022-07-29T07:13:05;24.10;86.20
15013;DHT22;7603;49.432;11.418;2022-07-29T07:15:31;24.40;84.80
15013;DHT22;7603;49.432;11.418;2022-07-29T07:17:57;24.60;83.60
15013;DHT22;7603;49.432;11.418;2022-07-29T07:20:23;24.70;81.80
15013;DHT22;7603;49.432;11.418;2022-07-29T07:22:49;24.90;80.70
15013;DHT22;7603;49.432;11.418;2022-07-29T07:25:15;25.10;79.80
15013;DHT22;7603;49.432;11.418;2022-07-29T07:27:45;25.30;79.00
15013;DHT22;7603;49.432;11.418;2022-07-29T07:30:11;25.40;77.50
15013;DHT22;7603;49.432;11.418;2022-07-29T07:32:37;25.50;76.60
15013;DHT22;7603;49.432;11.418;2022-07-29T07:35:05;25.70;76.30
15013;DHT22;7603;49.432;11.418;2022-07-29T07:37:31;25.80;76.00
15013;DHT22;7603;49.432;11.418;2022-07-29T07:39:56;25.90;75.60
15013;DHT22;7603;49.432;11.418;2022-07-29T07:42:23;26.00;74.50
15013;DHT22;7603;49.432;11.418;2022-07-29T07:44:49;26.10;74.20
15013;DHT22;7603;49.432;11.418;2022-07-29T07:47:15;26.20;74.00
15013;DHT22;7603;49.432;11.418;2022-07-29T07:49:48;26.30;73.10
15013;DHT22;7603;49.432;11.418;2022-07-29T07:52:16;26.40;71.90
15013;DHT22;7603;49.432;11.418;2022-07-29T07:54:42;26.40;71.00
15013;DHT22;7603;49.432;11.418;2022-07-29T07:57:08;26.40;70.30
15013;DHT22;7603;49.432;11.418;2022-07-29T07:59:34;26.50;70.30
15013;DHT22;7603;49.432;11.418;2022-07-29T08:01:59;26.50;70.30
15013;DHT22;7603;49.432;11.418;2022-07-29T08:04:26;26.60;70.50
15013;DHT22;7603;49.432;11.418;2022-07-29T08:06:52;26.70;70.40
15013;DHT22;7603;49.432;11.418;2022-07-29T08:09:20;26.90;70.10
15013;DHT22;7603;49.432;11.418;2022-07-29T08:11:45;27.30;70.30
15013;DHT22;7603;49.432;11.418;2022-07-29T08:14:11;27.60;70.00
15013;DHT22;7603;49.432;11.418;2022-07-29T08:16:39;27.80;67.70
15013;DHT22;7603;49.432;11.418;2022-07-29T08:19:05;28.00;67.20
15013;DHT22;7603;49.432;11.418;2022-07-29T08:21:30;28.20;66.60
15013;DHT22;7603;49.432;11.418;2022-07-29T08:23:56;28.50;66.40
15013;DHT22;7603;49.432;11.418;2022-07-29T08:26:43;28.80;64.60
15013;DHT22;7603;49.432;11.418;2022-07-29T08:29:09;29.20;63.20
15013;DHT22;7603;49.432;11.418;2022-07-29T08:31:35;29.50;61.90
15013;DHT22;7603;49.432;11.418;2022-07-29T08:34:02;29.80;61.10
15013;DHT22;7603;49.432;11.418;2022-07-29T08:36:28;30.00;60.30
15013;DHT22;7603;49.432;11.418;2022-07-29T08:38:53;30.30;59.40
15013;DHT22;7603;49.432;11.418;2022-07-29T08:41:19;30.50;58.80
15013;DHT22;7603;49.432;11.418;2022-07-29T08:43:46;30.60;58.50
15013;DHT22;7603;49.432;11.418;2022-07-29T08:46:12;30.60;58.20
15013;DHT22;7603;49.432;11.418;2022-07-29T08:48:38;30.60;58.30
15013;DHT22;7603;49.432;11.418;2022-07-29T08:51:07;30.60;57.90
15013;DHT22;7603;49.432;11.418;2022-07-29T08:53:34;30.50;57.80
15013;DHT22;7603;49.432;11.418;2022-07-29T08:56:00;30.50;57.90
15013;DHT22;7603;49.432;11.418;2022-07-29T08:58:32;30.40;57.80
15013;DHT22;7603;49.432;11.418;2022-07-29T09:01:01;30.20;57.80
15013;DHT22;7603;49.432;11.418;2022-07-29T09:03:33;30.20;58.00
15013;DHT22;7603;49.432;11.418;2022-07-29T09:06:00;30.10;58.10
15013;DHT22;7603;49.432;11.418;2022-07-29T09:08:26;30.20;57.40
15013;DHT22;7603;49.432;11.418;2022-07-29T09:10:52;30.20;57.00
15013;DHT22;7603;49.432;11.418;2022-07-29T09:13:18;30.20;57.10
15013;DHT22;7603;49.432;11.418;2022-07-29T09:15:45;30.30;57.40
15013;DHT22;7603;49.432;11.418;2022-07-29T09:18:11;30.30;57.40
15013;DHT22;7603;49.432;11.418;2022-07-29T09:20:37;30.40;57.30
15013;DHT22;7603;49.432;11.418;2022-07-29T09:23:22;30.50;57.00
15013;DHT22;7603;49.432;11.418;2022-07-29T09:25:48;30.50;56.80
15013;DHT22;7603;49.432;11.418;2022-07-29T09:28:15;30.50;56.80
15013;DHT22;7603;49.432;11.418;2022-07-29T09:30:57;30.40;56.70
15013;DHT22;7603;49.432;11.418;2022-07-29T09:33:30;30.40;56.70
15013;DHT22;7603;49.432;11.418;2022-07-29T09:36:04;30.60;56.70
15013;DHT22;7603;49.432;11.418;2022-07-29T09:38:31;31.00;56.60
15013;DHT22;7603;49.432;11.418;2022-07-29T09:41:01;31.40;55.90
15013;DHT22;7603;49.432;11.418;2022-07-29T09:43:28;31.60;55.40
15013;DHT22;7603;49.432;11.418;2022-07-29T09:45:54;31.80;54.60
15013;DHT22;7603;49.432;11.418;2022-07-29T09:48:25;32.00;54.10
15013;DHT22;7603;49.432;11.418;2022-07-29T09:50:51;32.20;53.60
15013;DHT22;7603;49.432;11.418;2022-07-29T09:53:34;32.40;53.60
15013;DHT22;7603;49.432;11.418;2022-07-29T09:56:00;32.60;53.50
15013;DHT22;7603;49.432;11.418;2022-07-29T09:58:27;32.90;53.00
15013;DHT22;7603;49.432;11.418;2022-07-29T10:00:54;33.30;52.30
15013;DHT22;7603;49.432;11.418;2022-07-29T10:03:20;33.60;51.70
15013;DHT22;7603;49.432;11.418;2022-07-29T10:06:09;34.00;51.00
15013;DHT22;7603;49.432;11.418;2022-07-29T10:08:36;34.50;49.60
15013;DHT22;7603;49.432;11.418;2022-07-29T10:11:10;34.90;49.00
15013;DHT22;7603;49.432;11.418;2022-07-29T10:13:36;35.10;48.20
15013;DHT22;7603;49.432;11.418;2022-07-29T10:16:03;35.30;47.80
15013;DHT22;7603;49.432;11.418;2022-07-29T10:18:29;35.40;47.10
15013;DHT22;7603;49.432;11.418;2022-07-29T10:20:55;35.60;46.80
15013;DHT22;7603;49.432;11.418;2022-07-29T10:23:22;35.90;46.60
15013;DHT22;7603;49.432;11.418;2022-07-29T10:25:48;36.30;46.40
15013;DHT22;7603;49.432;11.418;2022-07-29T10:28:14;36.80;45.20
15013;DHT22;7603;49.432;11.418;2022-07-29T10:30:40;37.60;44.70
15013;DHT22;7603;49.432;11.418;2022-07-29T10:36:15;38.90;42.10
15013;DHT22;7603;49.432;11.418;2022-07-29T10:39:00;39.50;41.10
15013;DHT22;7603;49.432;11.418;2022-07-29T10:44:18;40.90;40.00
15013;DHT22;7603;49.432;11.418;2022-07-29T10:46:46;41.50;38.80
15013;DHT22;7603;49.432;11.418;2022-07-29T10:49:24;41.90;38.40
15013;DHT22;7603;49.432;11.418;2022-07-29T10:52:11;42.30;37.50
15013;DHT22;7603;49.432;11.418;2022-07-29T10:57:16;43.20;36.80
15013;DHT22;7603;49.432;11.418;2022-07-29T10:59:43;43.60;35.80
15013;DHT22;7603;49.432;11.418;2022-07-29T11:05:13;44.80;34.30
15013;DHT22;7603;49.432;11.418;2022-07-29T11:08:16;45.40;33.30
15013;DHT22;7603;49.432;11.418;2022-07-29T11:10:26;45.90;32.90
15013;DHT22;7603;49.432;11.418;2022-07-29T11:12:52;46.40;32.70
15013;DHT22;7603;49.432;11.418;2022-07-29T11:15:22;46.70;31.60
15013;DHT22;7603;49.432;11.418;2022-07-29T11:23:00;48.00;30.00
15013;DHT22;7603;49.432;11.418;2022-07-29T11:25:26;48.70;29.60
15013;DHT22;7603;49.432;11.418;2022-07-29T11:28:09;49.30;29.10
15013;DHT22;7603;49.432;11.418;2022-07-29T11:30:50;49.70;29.00
15013;DHT22;7603;49.432;11.418;2022-07-29T11:33:31;50.20;28.20
15013;DHT22;7603;49.432;11.418;2022-07-29T11:36:14;50.50;27.80
15013;DHT22;7603;49.432;11.418;2022-07-29T11:38:40;50.90;27.60
15013;DHT22;7603;49.432;11.418;2022-07-29T11:41:28;51.50;27.50
15013;DHT22;7603;49.432;11.418;2022-07-29T11:43:56;51.10;26.80
15013;DHT22;7603;49.432;11.418;2022-07-29T14:26:49;25.90;99.90
15013;DHT22;7603;49.432;11.418;2022-07-29T14:29:14;26.80;99.90
15013;DHT22;7603;49.432;11.418;2022-07-29T14:31:40;27.70;99.90
15013;DHT22;7603;49.432;11.418;2022-07-29T14:34:06;28.30;99.40
15013;DHT22;7603;49.432;11.418;2022-07-29T14:36:31;28.40;98.00
15013;DHT22;7603;49.432;11.418;2022-07-29T14:38:57;28.40;97.30
15013;DHT22;7603;49.432;11.418;2022-07-29T14:41:22;28.20;98.20
15013;DHT22;7603;49.432;11.418;2022-07-29T14:43:48;28.10;99.20
15013;DHT22;7603;49.432;11.418;2022-07-29T14:46:14;28.00;98.90
15013;DHT22;7603;49.432;11.418;2022-07-29T14:48:39;27.90;98.70
15013;DHT22;7603;49.432;11.418;2022-07-29T14:51:05;27.90;99.20
15013;DHT22;7603;49.432;11.418;2022-07-29T14:56:40;28.50;99.80
15013;DHT22;7603;49.432;11.418;2022-07-29T14:59:06;30.40;97.20
15013;DHT22;7603;49.432;11.418;2022-07-29T15:01:31;32.70;91.60
15013;DHT22;7603;49.432;11.418;2022-07-29T15:03:57;35.10;81.20
15013;DHT22;7603;49.432;11.418;2022-07-29T15:06:23;37.50;74.00
15013;DHT22;7603;49.432;11.418;2022-07-29T15:08:49;39.60;64.10
15013;DHT22;7603;49.432;11.418;2022-07-29T15:11:14;41.40;58.10
15013;DHT22;7603;49.432;11.418;2022-07-29T15:13:40;42.70;54.00
15013;DHT22;7603;49.432;11.418;2022-07-29T15:16:06;43.80;50.50
15013;DHT22;7603;49.432;11.418;2022-07-29T15:18:32;44.70;47.80
15013;DHT22;7603;49.432;11.418;2022-07-29T15:20:57;45.60;45.80
15013;DHT22;7603;49.432;11.418;2022-07-29T15:23:25;45.80;43.60
15013;DHT22;7603;49.432;11.418;2022-07-29T15:25:51;45.70;43.40
15013;DHT22;7603;49.432;11.418;2022-07-29T15:28:16;44.80;42.40
15013;DHT22;7603;49.432;11.418;2022-07-29T15:30:42;43.80;42.90
15013;DHT22;7603;49.432;11.418;2022-07-29T15:33:09;42.10;44.20
15013;DHT22;7603;49.432;11.418;2022-07-29T15:35:36;40.50;46.30
15013;DHT22;7603;49.432;11.418;2022-07-29T15:38:02;39.00;48.30
15013;DHT22;7603;49.432;11.418;2022-07-29T15:40:28;37.70;51.30
15013;DHT22;7603;49.432;11.418;2022-07-29T15:42:54;36.50;53.90
15013;DHT22;7603;49.432;11.418;2022-07-29T15:45:20;35.40;56.20
15013;DHT22;7603;49.432;11.418;2022-07-29T15:47:45;34.40;57.40
15013;DHT22;7603;49.432;11.418;2022-07-29T15:50:11;33.50;60.50
15013;DHT22;7603;49.432;11.418;2022-07-29T15:52:41;32.70;63.90
15013;DHT22;7603;49.432;11.418;2022-07-29T15:55:07;31.90;67.70
15013;DHT22;7603;49.432;11.418;2022-07-29T15:57:33;31.10;72.20
15013;DHT22;7603;49.432;11.418;2022-07-29T15:59:58;30.40;76.10
15013;DHT22;7603;49.432;11.418;2022-07-29T16:02:24;29.70;79.70
15013;DHT22;7603;49.432;11.418;2022-07-29T16:04:50;29.00;83.50
15013;DHT22;7603;49.432;11.418;2022-07-29T16:07:15;28.30;87.10
15013;DHT22;7603;49.432;11.418;2022-07-29T16:09:42;27.80;90.10
15013;DHT22;7603;49.432;11.418;2022-07-29T16:12:08;27.30;91.70
15013;DHT22;7603;49.432;11.418;2022-07-29T16:14:34;26.70;93.60
15013;DHT22;7603;49.432;11.418;2022-07-29T16:17:00;26.20;95.30
15013;DHT22;7603;49.432;11.418;2022-07-29T16:19:28;25.80;96.40
15013;DHT22;7603;49.432;11.418;2022-07-29T16:21:55;25.40;96.90
15013;DHT22;7603;49.432;11.418;2022-07-29T16:24:20;25.10;98.50
15013;DHT22;7603;49.432;11.418;2022-07-29T16:26:46;24.80;99.90
15013;DHT22;7603;49.432;11.418;2022-07-29T16:29:12;24.50;99.90
15013;DHT22;7603;49.432;11.418;2022-07-29T16:31:37;24.20;99.90
15013;DHT22;7603;49.432;11.418;2022-07-29T16:34:03;23.90;99.90
15013;DHT22;7603;49.432;11.418;2022-07-29T16:36:29;23.60;99.90
15013;DHT22;7603;49.432;11.418;2022-07-29T16:38:54;23.40;99.90
15013;DHT22;7603;49.432;11.418;2022-07-29T16:41:20;23.20;99.90
15013;DHT22;7603;49.432;11.418;2022-07-29T16:43:46;23.10;99.90
15013;DHT22;7603;49.432;11.418;2022-07-29T16:46:12;23.00;99.90
15013;DHT22;7603;49.432;11.418;2022-07-29T16:48:37;22.90;99.90
15013;DHT22;7603;49.432;11.418;2022-07-29T16:51:06;22.80;99.90
15013;DHT22;7603;49.432;11.418;2022-07-29T16:53:33;22.60;99.90
15013;DHT22;7603;49.432;11.418;2022-07-29T16:55:58;22.60;99.90
15013;DHT22;7603;49.432;11.418;2022-07-29T16:58:24;22.60;99.90
15013;DHT22;7603;49.432;11.418;2022-07-29T17:00:51;22.50;99.90
15013;DHT22;7603;49.432;11.418;2022-07-29T17:03:17;22.50;99.90
15013;DHT22;7603;49.432;11.418;2022-07-29T17:05:43;22.50;99.90
15013;DHT22;7603;49.432;11.418;2022-07-29T17:08:09;22.40;99.90
15013;DHT22;7603;49.432;11.418;2022-07-29T17:10:35;22.40;99.90
15013;DHT22;7603;49.432;11.418;2022-07-29T17:13:00;22.30;99.90
15013;DHT22;7603;49.432;11.418;2022-07-29T17:15:26;22.30;99.90
15013;DHT22;7603;49.432;11.418;2022-07-29T17:17:51;22.10;99.90
15013;DHT22;7603;49.432;11.418;2022-07-29T17:20:17;22.00;99.90
15013;DHT22;7603;49.432;11.418;2022-07-29T17:22:43;21.90;99.90
15013;DHT22;7603;49.432;11.418;2022-07-29T17:25:09;21.80;99.90
15013;DHT22;7603;49.432;11.418;2022-07-29T17:27:35;21.80;99.90
15013;DHT22;7603;49.432;11.418;2022-07-29T17:30:01;21.80;99.90
15013;DHT22;7603;49.432;11.418;2022-07-29T17:32:28;21.80;99.90
15013;DHT22;7603;49.432;11.418;2022-07-29T17:34:54;21.80;99.90
15013;DHT22;7603;49.432;11.418;2022-07-29T17:37:20;21.80;99.90
15013;DHT22;7603;49.432;11.418;2022-07-29T17:39:46;21.70;99.90
15013;DHT22;7603;49.432;11.418;2022-07-29T17:42:13;21.70;99.90
15013;DHT22;7603;49.432;11.418;2022-07-29T17:44:39;21.60;99.90
15013;DHT22;7603;49.432;11.418;2022-07-29T17:47:05;21.60;99.90
15013;DHT22;7603;49.432;11.418;2022-07-29T17:49:32;21.60;99.90
15013;DHT22;7603;49.432;11.418;2022-07-29T17:51:58;21.60;99.90
15013;DHT22;7603;49.432;11.418;2022-07-29T17:54:23;21.60;99.90
15013;DHT22;7603;49.432;11.418;2022-07-29T17:56:49;21.50;99.90
15013;DHT22;7603;49.432;11.418;2022-07-29T17:59:15;21.50;99.90
15013;DHT22;7603;49.432;11.418;2022-07-29T18:01:41;21.50;99.90
15013;DHT22;7603;49.432;11.418;2022-07-29T18:04:07;21.50;99.90
15013;DHT22;7603;49.432;11.418;2022-07-29T18:06:33;21.40;99.90
15013;DHT22;7603;49.432;11.418;2022-07-29T18:08:59;21.40;99.90
15013;DHT22;7603;49.432;11.418;2022-07-29T18:11:24;21.30;99.90
15013;DHT22;7603;49.432;11.418;2022-07-29T18:13:50;21.30;99.90
15013;DHT22;7603;49.432;11.418;2022-07-29T18:16:17;21.20;99.90
15013;DHT22;7603;49.432;11.418;2022-07-29T18:18:43;21.10;99.90
15013;DHT22;7603;49.432;11.418;2022-07-29T18:21:10;21.00;99.90
15013;DHT22;7603;49.432;11.418;2022-07-29T18:23:36;20.90;99.90
15013;DHT22;7603;49.432;11.418;2022-07-29T18:26:02;20.80;99.90
15013;DHT22;7603;49.432;11.418;2022-07-29T18:28:27;20.60;99.90
15013;DHT22;7603;49.432;11.418;2022-07-29T18:30:53;20.50;99.90
15013;DHT22;7603;49.432;11.418;2022-07-29T18:33:19;20.30;99.90
15013;DHT22;7603;49.432;11.418;2022-07-29T18:35:46;20.20;99.90
15013;DHT22;7603;49.432;11.418;2022-07-29T18:38:12;20.20;99.90
15013;DHT22;7603;49.432;11.418;2022-07-29T18:40:38;20.10;99.90
15013;DHT22;7603;49.432;11.418;2022-07-29T18:43:06;20.10;99.90
15013;DHT22;7603;49.432;11.418;2022-07-29T18:45:32;20.10;99.90
15013;DHT22;7603;49.432;11.418;2022-07-29T18:47:58;20.10;99.90